Time;durP1;ratioP1;P1;durP2;ratioP2;P2;SDS_P1;SDS_P2;PMS_P1;PMS_P2;Temp;Humidity;BMP_temperature;BMP_pressure;BME280_temperature;BME280_humidity;BME280_pressure;Samples;Min_cycle;Max_cycle;Signal;HPM_P1;HPM_P2
2022/10/19 00:01:12;;;;;;;12.02;2.72;;;9.10;99.90;;;;;;5022870;28;20053;-59
2022/10/19 00:03:38;;;;;;;17.80;3.33;;;9.40;99.90;;;;;;5023172;28;20553;-59
2022/10/19 00:06:25;;;;;;;8.75;3.33;;;10.00;99.90;;;;;;5023536;28;20076;-60
2022/10/19 00:08:56;;;;;;;12.45;3.13;;;9.80;99.90;;;;;;5023330;28;20041;-59
2022/10/19 00:11:25;;;;;;;13.85;2.92;;;9.50;99.90;;;;;;5023484;28;20117;-59
2022/10/19 00:13:52;;;;;;;13.80;3.33;;;9.50;99.90;;;;;;5026344;28;20609;-59
2022/10/19 00:16:19;;;;;;;7.75;2.65;;;11.70;99.90;;;;;;5023396;28;20101;-59
2022/10/19 00:18:44;;;;;;;12.77;3.10;;;9.80;99.90;;;;;;5024649;28;21066;-59
2022/10/19 00:21:16;;;;;;;11.35;3.15;;;9.40;99.90;;;;;;5024318;28;20068;-60
2022/10/19 00:23:42;;;;;;;13.90;3.03;;;10.30;99.90;;;;;;5020473;28;20098;-59
2022/10/19 00:26:08;;;;;;;11.23;3.65;;;11.40;99.90;;;;;;5024293;28;20540;-60
2022/10/19 00:28:34;;;;;;;15.18;3.53;;;11.10;99.90;;;;;;5024375;28;20041;-60
2022/10/19 00:31:06;;;;;;;15.40;4.05;;;10.50;99.90;;;;;;5025331;28;20398;-60
2022/10/19 00:33:32;;;;;;;7.28;3.03;;;9.50;99.90;;;;;;5022615;28;20072;-60
2022/10/19 00:35:58;;;;;;;16.08;3.08;;;10.90;99.90;;;;;;5024467;28;20343;-59
2022/10/19 00:38:24;;;;;;;12.10;3.08;;;9.60;99.90;;;;;;5021615;28;20132;-59
2022/10/19 00:40:50;;;;;;;15.00;4.82;;;10.10;99.90;;;;;;5026972;28;20607;-60
2022/10/19 00:43:22;;;;;;;8.60;3.70;;;9.60;99.90;;;;;;5024332;28;20667;-60
2022/10/19 00:45:47;;;;;;;;;;;10.20;99.90;;;;;;5021004;28;20162;-60
2022/10/19 00:48:30;;;;;;;12.82;2.88;;;9.70;99.90;;;;;;5024001;28;19972;-59
2022/10/19 00:50:56;;;;;;;;;;;10.30;99.90;;;;;;5026190;28;20038;-59
2022/10/19 00:53:25;;;;;;;12.15;3.28;;;9.40;99.90;;;;;;5023738;28;19948;-59
2022/10/19 00:55:50;;;;;;;12.82;3.10;;;9.60;99.90;;;;;;5023979;28;20043;-60
2022/10/19 00:58:16;;;;;;;10.40;2.75;;;10.00;99.90;;;;;;5020294;28;20948;-60
2022/10/19 01:00:42;;;;;;;13.13;2.95;;;10.90;99.90;;;;;;5021163;28;20109;-59
2022/10/19 01:03:10;;;;;;;13.30;3.75;;;10.40;99.90;;;;;;5024019;28;20041;-59
2022/10/19 01:05:36;;;;;;;9.05;3.22;;;10.80;99.90;;;;;;5022149;28;20049;-59
2022/10/19 01:08:02;;;;;;;8.07;2.67;;;9.60;99.90;;;;;;5018143;28;20044;-60
2022/10/19 01:10:49;;;;;;;8.65;2.55;;;9.60;99.90;;;;;;5023417;28;20041;-59
2022/10/19 01:13:35;;;;;;;7.40;2.58;;;9.50;99.90;;;;;;5023120;28;20045;-61
2022/10/19 01:16:18;;;;;;;11.60;2.95;;;9.90;99.90;;;;;;5019867;28;20616;-59
2022/10/19 01:18:55;;;;;;;10.57;2.53;;;10.00;99.90;;;;;;5017486;28;20073;-59
2022/10/19 01:21:38;;;;;;;8.75;2.10;;;11.20;99.90;;;;;;5023070;28;20052;-60
2022/10/19 01:24:25;;;;;;;15.07;2.40;;;9.70;99.90;;;;;;5023222;28;20720;-60
2022/10/19 01:27:30;;;;;;;11.82;2.20;;;9.80;99.90;;;;;;5020859;28;20041;-60
2022/10/19 01:29:58;;;;;;;16.20;2.50;;;9.80;99.90;;;;;;5022741;28;20430;-59
2022/10/19 01:32:53;;;;;;;11.60;2.03;;;9.90;99.90;;;;;;5021989;28;20047;-59
2022/10/19 01:35:31;;;;;;;9.63;2.10;;;9.60;99.90;;;;;;5025338;28;20067;-59
2022/10/19 01:38:13;;;;;;;10.27;3.50;;;9.80;99.90;;;;;;5026996;28;20514;-60
2022/10/19 01:40:42;;;;;;;7.68;1.92;;;9.90;99.90;;;;;;5023815;28;20064;-59
2022/10/19 01:43:32;;;;;;;14.85;2.20;;;11.80;99.90;;;;;;5026490;28;20045;-59
2022/10/19 01:46:07;;;;;;;7.35;2.40;;;9.80;99.90;;;;;;5025256;28;20087;-59
2022/10/19 01:48:40;;;;;;;11.13;2.22;;;9.60;99.90;;;;;;5022676;28;20045;-59
2022/10/19 01:51:16;;;;;;;12.60;2.20;;;9.80;99.90;;;;;;5022793;28;20033;-60
2022/10/19 01:53:47;;;;;;;13.75;2.30;;;11.40;99.90;;;;;;5022550;28;20038;-59
2022/10/19 01:56:15;;;;;;;8.00;1.90;;;9.90;99.90;;;;;;5027868;28;20037;-59
2022/10/19 01:58:44;;;;;;;10.63;2.22;;;9.80;99.90;;;;;;5027568;28;20291;-59
2022/10/19 02:01:12;;;;;;;8.80;2.17;;;10.00;99.90;;;;;;5025514;28;20636;-59
2022/10/19 02:03:39;;;;;;;10.30;2.40;;;11.70;99.90;;;;;;5028673;28;20590;-59
2022/10/19 02:06:07;;;;;;;10.52;1.90;;;10.80;99.90;;;;;;5025206;28;20116;-59
2022/10/19 02:08:49;;;;;;;14.32;2.85;;;11.90;99.90;;;;;;5022713;28;20117;-59
2022/10/19 02:11:17;;;;;;;11.07;2.30;;;10.80;99.90;;;;;;5025995;28;20044;-59
2022/10/19 02:13:44;;;;;;;18.10;2.28;;;11.70;99.90;;;;;;5027745;28;20526;-59
2022/10/19 02:16:19;;;;;;;12.80;2.17;;;9.90;99.90;;;;;;5026242;28;20121;-59
2022/10/19 02:18:48;;;;;;;9.52;2.17;;;9.90;99.90;;;;;;5024364;28;20408;-59
2022/10/19 02:21:14;;;;;;;8.88;2.08;;;11.30;99.90;;;;;;5026246;28;20041;-59
2022/10/19 02:23:40;;;;;;;13.00;2.30;;;10.40;99.90;;;;;;5022565;28;20056;-60
2022/10/19 02:26:06;;;;;;;9.05;2.08;;;10.00;99.90;;;;;;5028097;28;20072;-59
2022/10/19 02:28:33;;;;;;;6.55;2.05;;;9.80;99.90;;;;;;5024863;28;20531;-60
2022/10/19 02:30:59;;;;;;;8.18;1.70;;;9.70;99.90;;;;;;5025888;28;20548;-59
2022/10/19 02:33:27;;;;;;;6.80;2.30;;;9.80;99.90;;;;;;5025594;28;20042;-59
2022/10/19 02:35:53;;;;;;;8.65;2.03;;;9.90;99.90;;;;;;5020566;28;20041;-59
2022/10/19 02:38:21;;;;;;;10.15;1.95;;;9.90;99.90;;;;;;5024316;28;20056;-59
2022/10/19 02:41:22;;;;;;;10.05;2.15;;;10.70;99.90;;;;;;5025390;28;20128;-59
2022/10/19 02:43:51;;;;;;;10.77;2.10;;;10.10;99.90;;;;;;5023328;28;21121;-59
2022/10/19 02:46:23;;;;;;;9.40;2.03;;;9.70;99.90;;;;;;5021905;28;20048;-59
2022/10/19 02:48:50;;;;;;;12.73;2.10;;;9.90;99.90;;;;;;5024179;28;20121;-59
2022/10/19 02:51:38;;;;;;;7.65;1.83;;;9.90;99.90;;;;;;5021057;28;20047;-60
2022/10/19 02:54:06;;;;;;;6.80;1.95;;;9.70;99.90;;;;;;5025785;28;20041;-59
2022/10/19 02:56:34;;;;;;;11.88;1.98;;;11.00;99.90;;;;;;5026568;28;20048;-59
2022/10/19 02:59:00;;;;;;;13.50;2.25;;;9.50;99.90;;;;;;5025452;28;20045;-60
2022/10/19 03:01:26;;;;;;;12.35;2.08;;;11.30;99.90;;;;;;5024861;28;20044;-61
2022/10/19 03:03:52;;;;;;;6.75;1.70;;;9.60;99.90;;;;;;5027008;28;20410;-60
2022/10/19 03:06:17;;;;;;;11.50;1.90;;;9.70;99.90;;;;;;5027455;28;20038;-59
2022/10/19 03:08:43;;;;;;;18.73;2.72;;;11.10;99.90;;;;;;5026223;28;20033;-59
2022/10/19 03:11:09;;;;;;;8.10;1.70;;;9.60;99.90;;;;;;5024731;28;20768;-59
2022/10/19 03:13:35;;;;;;;8.70;1.92;;;9.40;99.90;;;;;;5028528;28;20040;-59
2022/10/19 03:16:11;;;;;;;9.38;1.77;;;9.30;99.90;;;;;;5027360;28;20045;-60
2022/10/19 03:18:37;;;;;;;6.88;1.80;;;9.30;99.90;;;;;;5025319;28;20045;-60
2022/10/19 03:21:08;;;;;;;11.77;1.95;;;10.40;99.90;;;;;;5027750;28;20029;-63
2022/10/19 03:23:34;;;;;;;11.20;2.08;;;9.30;99.90;;;;;;5025649;28;20076;-59
2022/10/19 03:26:00;;;;;;;8.38;1.83;;;10.30;99.90;;;;;;5023548;28;20509;-60
2022/10/19 03:28:26;;;;;;;11.93;2.92;;;11.10;99.90;;;;;;5024675;28;20041;-60
2022/10/19 03:30:51;;;;;;;8.85;1.52;;;9.30;99.90;;;;;;5023495;28;20055;-59
2022/10/19 03:33:17;;;;;;;12.32;1.90;;;9.30;99.90;;;;;;5024241;28;20053;-59
2022/10/19 03:35:43;;;;;;;9.10;2.40;;;9.10;99.90;;;;;;5023682;28;20577;-60
2022/10/19 03:38:08;;;;;;;5.60;1.50;;;10.30;99.90;;;;;;5024285;28;20406;-60
2022/10/19 03:40:34;;;;;;;11.73;1.77;;;9.20;99.90;;;;;;5026568;28;20053;-59
2022/10/19 03:43:00;;;;;;;7.43;1.55;;;9.30;99.90;;;;;;5026044;28;20051;-60
2022/10/19 03:45:25;;;;;;;8.60;1.90;;;9.20;99.90;;;;;;5021679;28;20129;-60
2022/10/19 03:47:51;;;;;;;15.90;2.58;;;10.70;99.90;;;;;;5025708;28;20597;-59
2022/10/19 03:50:17;;;;;;;7.35;1.67;;;9.20;99.90;;;;;;5022065;28;20056;-59
2022/10/19 03:52:43;;;;;;;6.05;1.65;;;9.10;99.90;;;;;;5018820;28;20048;-60
2022/10/19 03:55:09;;;;;;;10.70;2.03;;;10.40;99.90;;;;;;5024281;28;20037;-56
2022/10/19 03:57:36;;;;;;;7.85;1.88;;;9.10;99.90;;;;;;5022378;28;20591;-58
2022/10/19 04:00:03;;;;;;;4.78;1.40;;;9.20;99.90;;;;;;5024501;28;20037;-58
2022/10/19 04:02:29;;;;;;;8.70;1.70;;;9.20;99.90;;;;;;5025203;28;20049;-58
2022/10/19 04:04:55;;;;;;;10.43;1.73;;;9.90;99.90;;;;;;5026093;28;20060;-58
2022/10/19 04:07:20;;;;;;;6.97;1.90;;;9.00;99.90;;;;;;5023612;28;21009;-57
2022/10/19 04:09:46;;;;;;;10.10;1.83;;;10.70;99.90;;;;;;5024782;28;20036;-58
2022/10/19 04:12:12;;;;;;;11.30;1.80;;;10.00;99.90;;;;;;5026100;28;20709;-59
2022/10/19 04:14:38;;;;;;;20.98;3.15;;;9.20;99.90;;;;;;5026147;28;20037;-59
2022/10/19 04:17:04;;;;;;;14.40;2.05;;;9.80;99.90;;;;;;5024879;28;20048;-58
2022/10/19 04:19:31;;;;;;;10.77;1.60;;;9.30;99.90;;;;;;5024912;28;20132;-58
2022/10/19 04:21:57;;;;;;;9.40;1.92;;;9.30;99.90;;;;;;5025473;28;20084;-58
2022/10/19 04:24:23;;;;;;;10.95;2.20;;;9.40;99.90;;;;;;5026556;28;20115;-59
2022/10/19 04:26:51;;;;;;;11.27;1.65;;;9.50;99.90;;;;;;5023056;28;20052;-59
2022/10/19 04:29:18;;;;;;;10.07;1.60;;;11.10;99.90;;;;;;5024767;28;20100;-58
2022/10/19 04:31:45;;;;;;;6.90;1.40;;;9.60;99.90;;;;;;5022396;28;20519;-58
2022/10/19 04:34:11;;;;;;;9.25;2.03;;;9.70;99.90;;;;;;5023758;28;20411;-58
2022/10/19 04:36:37;;;;;;;15.20;1.92;;;10.70;99.90;;;;;;5022103;28;20045;-58
2022/10/19 04:39:04;;;;;;;15.05;2.17;;;10.80;99.90;;;;;;5027613;28;20037;-58
2022/10/19 04:41:31;;;;;;;9.93;1.65;;;9.70;99.90;;;;;;5022703;28;20220;-58
2022/10/19 04:43:59;;;;;;;14.27;2.17;;;9.90;99.90;;;;;;5022449;28;20478;-60
2022/10/19 04:46:26;;;;;;;12.68;1.88;;;9.50;99.90;;;;;;5022938;28;20048;-61
2022/10/19 04:48:53;;;;;;;16.35;1.98;;;9.60;99.90;;;;;;5021986;28;20180;-62
2022/10/19 04:51:19;;;;;;;14.57;2.13;;;11.30;99.90;;;;;;5023406;28;20125;-61
2022/10/19 04:53:46;;;;;;;14.40;1.70;;;9.60;99.90;;;;;;5022668;28;20048;-62
2022/10/19 04:56:15;;;;;;;10.55;1.90;;;10.90;99.90;;;;;;5023446;28;20419;-61
2022/10/19 04:58:41;;;;;;;16.13;2.13;;;9.60;99.90;;;;;;5022169;28;20076;-61
2022/10/19 05:01:12;;;;;;;10.73;1.98;;;9.70;99.90;;;;;;5021217;28;20056;-61
2022/10/19 05:03:39;;;;;;;9.00;1.40;;;11.20;99.90;;;;;;5025853;28;20045;-61
2022/10/19 05:06:06;;;;;;;14.13;2.08;;;10.30;99.90;;;;;;5019306;28;20132;-62
2022/10/19 05:08:32;;;;;;;12.00;1.40;;;9.60;99.90;;;;;;5023348;28;20129;-61
2022/10/19 05:11:07;;;;;;;10.13;1.65;;;9.90;99.90;;;;;;5027398;28;20049;-61
2022/10/19 05:13:34;;;;;;;14.45;1.80;;;10.50;99.90;;;;;;5028866;28;20049;-61
2022/10/19 05:16:01;;;;;;;12.38;2.47;;;9.80;99.90;;;;;;5026317;28;20037;-61
2022/10/19 05:18:27;;;;;;;15.18;1.83;;;11.50;99.90;;;;;;5024153;28;20049;-61
2022/10/19 05:21:07;;;;;;;14.13;1.75;;;9.80;99.90;;;;;;5027277;28;20033;-61
2022/10/19 05:23:33;;;;;;;16.15;1.92;;;10.00;99.90;;;;;;5024055;28;20461;-61
2022/10/19 05:26:04;;;;;;;18.92;2.45;;;9.90;99.90;;;;;;5025839;28;20498;-61
2022/10/19 05:28:30;;;;;;;12.23;1.90;;;10.00;99.90;;;;;;5026007;28;20624;-61
2022/10/19 05:31:04;;;;;;;15.60;1.80;;;9.90;99.90;;;;;;5028399;28;20037;-61
2022/10/19 05:33:30;;;;;;;17.17;1.88;;;11.50;99.90;;;;;;5025332;28;20307;-61
2022/10/19 05:35:56;;;;;;;11.13;2.15;;;11.40;99.90;;;;;;5029040;28;20043;-61
2022/10/19 05:38:21;;;;;;;7.28;1.50;;;10.90;99.90;;;;;;5023916;28;20456;-59
2022/10/19 05:40:47;;;;;;;11.50;1.75;;;10.10;99.90;;;;;;5029241;28;20063;-60
2022/10/19 05:43:13;;;;;;;11.43;1.75;;;10.60;99.90;;;;;;5026746;28;20033;-61
2022/10/19 05:45:38;;;;;;;11.52;1.50;;;12.00;99.90;;;;;;5028043;28;20144;-60
2022/10/19 05:48:04;;;;;;;11.23;2.00;;;11.70;99.90;;;;;;5027510;28;20049;-62
2022/10/19 05:50:30;;;;;;;13.85;1.73;;;10.20;99.90;;;;;;5025969;28;20044;-61
2022/10/19 05:52:56;;;;;;;13.05;1.58;;;12.10;99.90;;;;;;5028361;28;20070;-61
2022/10/19 05:55:22;;;;;;;17.80;2.47;;;10.20;98.60;;;;;;5029701;28;20041;-61
2022/10/19 05:57:48;;;;;;;11.60;1.70;;;10.20;97.10;;;;;;5025826;28;20686;-61
2022/10/19 06:00:13;;;;;;;12.88;1.67;;;10.50;91.60;;;;;;5026391;28;20040;-61
2022/10/19 06:02:39;;;;;;;14.95;2.58;;;10.30;93.20;;;;;;5024119;28;20113;-61
2022/10/19 06:05:05;;;;;;;17.23;2.13;;;10.30;94.30;;;;;;5027861;28;20104;-61
2022/10/19 06:07:31;;;;;;;13.23;1.83;;;10.20;93.40;;;;;;5024082;28;20109;-61
2022/10/19 06:09:57;;;;;;;14.93;1.92;;;12.60;94.00;;;;;;5026073;28;20040;-61
2022/10/19 06:12:22;;;;;;;17.70;2.05;;;10.30;95.40;;;;;;5025879;28;20477;-61
2022/10/19 06:14:51;;;;;;;20.48;2.95;;;10.40;94.70;;;;;;5027689;28;20824;-60
2022/10/19 06:17:17;;;;;;;10.02;1.85;;;11.80;95.20;;;;;;5026345;28;20045;-60
2022/10/19 06:19:42;;;;;;;9.60;1.58;;;10.60;84.30;;;;;;5027114;28;20467;-60
2022/10/19 06:22:08;;;;;;;11.52;1.70;;;10.40;87.50;;;;;;5025294;28;20076;-60
2022/10/19 06:24:34;;;;;;;15.15;2.40;;;10.40;85.70;;;;;;5025397;28;20077;-61
2022/10/19 06:26:59;;;;;;;8.88;1.08;;;10.40;81.80;;;;;;5025905;28;20090;-60
2022/10/19 06:29:25;;;;;;;13.82;1.55;;;12.30;78.90;;;;;;5023662;28;20049;-60
2022/10/19 06:31:53;;;;;;;10.73;1.52;;;10.90;69.80;;;;;;5027407;28;20055;-60
2022/10/19 06:34:18;;;;;;;14.63;1.73;;;10.80;61.90;;;;;;5022309;28;20136;-61
2022/10/19 06:36:44;;;;;;;11.48;1.45;;;10.50;67.80;;;;;;5025101;28;20040;-61
2022/10/19 06:39:10;;;;;;;11.88;2.03;;;10.40;71.40;;;;;;5025985;28;20048;-61
2022/10/19 06:41:35;;;;;;;9.65;1.73;;;10.30;70.30;;;;;;5024628;28;20387;-60
2022/10/19 06:44:01;;;;;;;9.60;1.52;;;10.50;69.70;;;;;;5024223;28;20122;-61
2022/10/19 06:46:27;;;;;;;12.38;1.60;;;11.60;74.90;;;;;;5030093;28;20112;-61
2022/10/19 06:48:55;;;;;;;10.70;1.95;;;11.80;80.50;;;;;;5026566;28;20500;-60
2022/10/19 06:51:23;;;;;;;9.88;1.70;;;10.30;79.30;;;;;;5025766;28;20131;-60
2022/10/19 06:53:49;;;;;;;12.13;1.40;;;11.00;81.80;;;;;;5027443;28;20170;-59
2022/10/19 06:56:15;;;;;;;11.07;1.23;;;10.50;72.50;;;;;;5024730;28;20041;-60
2022/10/19 06:58:40;;;;;;;8.23;1.58;;;10.50;44.50;;;;;;5027317;28;20037;-60
2022/10/19 07:01:08;;;;;;;14.50;2.92;;;10.70;31.00;;;;;;5024743;28;20048;-60
2022/10/19 07:03:34;;;;;;;7.68;1.27;;;10.90;27.10;;;;;;5027013;28;20110;-60
2022/10/19 07:06:02;;;;;;;11.00;1.92;;;12.80;28.20;;;;;;5028693;28;20113;-60
2022/10/19 07:08:30;;;;;;;10.50;1.70;;;10.60;23.90;;;;;;5029302;28;20049;-60
2022/10/19 07:10:59;;;;;;;13.00;1.55;;;11.00;16.60;;;;;;5028113;28;20045;-60
2022/10/19 07:13:26;;;;;;;10.75;1.80;;;12.30;14.50;;;;;;5024889;28;20044;-60
2022/10/19 07:16:07;;;;;;;15.48;2.08;;;11.60;19.60;;;;;;5025251;28;20052;-59
2022/10/19 07:18:34;;;;;;;11.45;1.50;;;10.80;20.50;;;;;;5028265;28;20041;-59
2022/10/19 07:21:03;;;;;;;13.32;1.38;;;10.80;24.30;;;;;;5027342;28;20056;-60
2022/10/19 07:23:32;;;;;;;6.32;1.20;;;12.90;8.90;;;;;;5024299;28;20029;-59
2022/10/19 07:26:13;;;;;;;14.07;2.05;;;12.60;10.70;;;;;;5026030;28;20045;-61
2022/10/19 07:28:40;;;;;;;10.63;1.45;;;11.20;8.70;;;;;;5022977;28;20041;-59
2022/10/19 07:31:12;;;;;;;10.15;1.15;;;11.00;2.40;;;;;;5026886;28;20041;-60
2022/10/19 07:33:37;;;;;;;9.10;1.40;;;11.00;7.90;;;;;;5024278;28;20049;-60
2022/10/19 07:36:06;;;;;;;8.52;1.15;;;11.00;4.90;;;;;;5021890;28;20041;-60
2022/10/19 07:38:33;;;;;;;12.82;1.50;;;11.20;11.70;;;;;;5025582;28;20498;-60
2022/10/19 07:41:08;;;;;;;10.38;1.77;;;11.30;21.40;;;;;;5024377;28;20057;-60
2022/10/19 07:43:34;;;;;;;9.32;1.42;;;11.00;29.00;;;;;;5024160;28;20049;-60
2022/10/19 07:46:03;;;;;;;17.73;2.22;;;12.80;35.00;;;;;;5025965;28;20280;-59
2022/10/19 07:48:28;;;;;;;10.82;1.50;;;11.10;45.50;;;;;;5022509;28;20045;-60
2022/10/19 07:50:54;;;;;;;10.60;1.52;;;11.20;51.50;;;;;;5023926;28;20042;-60
2022/10/19 07:53:21;;;;;;;15.25;1.70;;;11.20;53.60;;;;;;5027713;28;20052;-60
2022/10/19 07:55:46;;;;;;;8.93;1.50;;;11.10;50.80;;;;;;5024698;28;20052;-60
2022/10/19 07:58:12;;;;;;;9.98;1.52;;;11.90;49.80;;;;;;5027749;28;20041;-59
2022/10/19 08:00:38;;;;;;;7.47;1.58;;;11.30;47.90;;;;;;5026987;28;20400;-60
2022/10/19 08:03:04;;;;;;;11.70;1.42;;;11.20;52.70;;;;;;5024277;28;20828;-60
2022/10/19 08:05:32;;;;;;;16.88;2.25;;;11.20;51.20;;;;;;5025661;28;20048;-60
2022/10/19 08:07:57;;;;;;;11.63;1.38;;;13.50;57.30;;;;;;5024861;28;20058;-60
2022/10/19 08:10:23;;;;;;;10.23;1.60;;;11.50;56.90;;;;;;5027992;28;20045;-59
2022/10/19 08:12:49;;;;;;;12.27;1.80;;;11.40;54.60;;;;;;5022665;28;20313;-59
2022/10/19 08:15:14;;;;;;;10.02;1.60;;;11.40;55.20;;;;;;5025526;28;20398;-60
2022/10/19 08:17:40;;;;;;;13.57;2.05;;;11.40;56.90;;;;;;5027386;28;20109;-60
2022/10/19 08:20:07;;;;;;;10.95;1.48;;;12.00;64.80;;;;;;5026058;28;20048;-59
2022/10/19 08:22:33;;;;;;;16.77;1.60;;;11.30;72.50;;;;;;5023719;28;20041;-60
2022/10/19 08:24:58;;;;;;;11.10;1.80;;;11.40;65.70;;;;;;5024085;28;20048;-59
2022/10/19 08:27:24;;;;;;;15.75;2.15;;;11.40;70.80;;;;;;5023318;28;20643;-60
2022/10/19 08:29:50;;;;;;;11.85;1.60;;;13.00;72.50;;;;;;5023289;28;20974;-60
2022/10/19 08:32:17;;;;;;;13.35;2.05;;;11.40;72.80;;;;;;5026001;28;20067;-59
2022/10/19 08:34:43;;;;;;;8.80;1.50;;;11.40;69.10;;;;;;5026552;28;20088;-60
2022/10/19 08:37:09;;;;;;;12.75;1.65;;;11.50;64.10;;;;;;5025388;28;20131;-60
2022/10/19 08:39:35;;;;;;;7.50;1.45;;;11.50;55.70;;;;;;5023851;28;20039;-60
2022/10/19 08:42:22;;;;;;;14.35;1.83;;;11.40;54.40;;;;;;5022985;28;20057;-59
2022/10/19 08:44:47;;;;;;;12.23;2.10;;;11.60;49.30;;;;;;5021592;28;20117;-59
2022/10/19 08:47:51;;;;;;;11.98;1.60;;;11.70;45.80;;;;;;5024032;28;20037;-59
2022/10/19 08:50:26;;;;;;;10.57;1.70;;;11.90;44.20;;;;;;5022068;28;20351;-60
2022/10/19 08:53:01;;;;;;;9.63;2.00;;;11.90;46.50;;;;;;5021281;28;20041;-60
2022/10/19 08:55:59;;;;;;;10.40;2.05;;;11.90;51.10;;;;;;5022092;28;20041;-59
2022/10/19 08:58:38;;;;;;;7.93;1.45;;;12.00;50.90;;;;;;4989746;28;20065;-60
2022/10/19 09:01:15;;;;;;;12.27;1.70;;;14.10;51.10;;;;;;5023175;28;20056;-60
2022/10/19 09:03:45;;;;;;;11.75;1.80;;;12.00;45.50;;;;;;5023663;28;20087;-59
2022/10/19 09:06:32;;;;;;;10.10;1.65;;;12.00;24.80;;;;;;5023308;28;20391;-60
2022/10/19 09:08:58;;;;;;;14.55;1.58;;;11.90;16.90;;;;;;5025573;28;20044;-59
2022/10/19 09:11:28;;;;;;;9.32;1.40;;;12.10;3.90;;;;;;5024439;28;20037;-60
2022/10/19 09:14:09;;;;;;;11.82;1.83;;;12.40;1.00;;;;;;5021598;28;20045;-59
2022/10/19 09:16:35;;;;;;;10.03;1.80;;;12.10;1.00;;;;;;5020933;28;20048;-60
2022/10/19 09:19:07;;;;;;;11.25;1.35;;;12.20;1.00;;;;;;5024072;28;20033;-59
2022/10/19 09:21:49;;;;;;;9.80;1.25;;;14.50;1.00;;;;;;5019493;28;20684;-60
2022/10/19 09:24:34;;;;;;;10.80;1.23;;;12.20;7.70;;;;;;5023657;28;20053;-59
2022/10/19 09:27:01;;;;;;;13.00;2.15;;;12.40;10.60;;;;;;5026034;28;20451;-60
2022/10/19 09:29:47;;;;;;;8.77;1.73;;;12.30;4.60;;;;;;5023964;28;20478;-59
2022/10/19 09:32:20;;;;;;;10.13;1.60;;;12.40;1.00;;;;;;5027128;28;20473;-59
2022/10/19 09:34:52;;;;;;;12.63;1.67;;;12.40;1.00;;;;;;5026032;28;20081;-60
2022/10/19 09:37:20;;;;;;;;;;;12.40;1.00;;;;;;5025687;28;20053;-60
2022/10/19 09:39:45;;;;;;;6.07;1.20;;;12.20;1.00;;;;;;5022839;28;20386;-59
2022/10/19 09:42:25;;;;;;;10.70;1.73;;;12.30;1.00;;;;;;5020457;28;20057;-59
2022/10/19 09:44:53;;;;;;;11.20;2.03;;;12.30;1.00;;;;;;5025028;28;20076;-59
2022/10/19 09:47:34;;;;;;;12.25;1.60;;;12.30;1.00;;;;;;5024630;28;20133;-59
2022/10/19 09:50:17;;;;;;;10.90;1.70;;;13.00;1.00;;;;;;5024964;28;20053;-59
2022/10/19 09:52:44;;;;;;;;;;;12.30;1.00;;;;;;5023206;28;20042;-58
2022/10/19 09:55:12;;;;;;;8.55;1.13;;;12.30;1.00;;;;;;5023020;28;19940;-59
2022/10/19 09:58:13;;;;;;;11.05;1.42;;;13.30;1.00;;;;;;5025086;28;20121;-59
2022/10/19 10:00:46;;;;;;;8.15;1.10;;;12.40;1.00;;;;;;5024110;28;20592;-59
2022/10/19 10:03:39;;;;;;;6.50;1.15;;;12.30;1.00;;;;;;5027614;28;20131;-59
2022/10/19 10:06:07;;;;;;;11.73;1.65;;;12.20;1.00;;;;;;5027066;28;20038;-59
2022/10/19 10:08:36;;;;;;;11.85;1.08;;;12.30;1.00;;;;;;5027160;28;20041;-59
2022/10/19 10:11:22;;;;;;;9.73;1.73;;;12.30;1.00;;;;;;5025465;28;20041;-59
2022/10/19 10:13:50;;;;;;;7.07;1.63;;;12.40;1.00;;;;;;5026288;28;20099;-59
2022/10/19 10:16:19;;;;;;;14.15;1.63;;;12.30;1.00;;;;;;5023905;28;20040;-59
2022/10/19 10:18:58;;;;;;;15.75;1.85;;;12.50;1.00;;;;;;5026468;28;20052;-59
2022/10/19 10:21:27;;;;;;;8.63;1.27;;;14.30;1.00;;;;;;5024576;28;20124;-59
2022/10/19 10:24:05;;;;;;;10.63;1.63;;;12.80;1.00;;;;;;5025701;28;20041;-60
2022/10/19 10:26:37;;;;;;;11.05;1.52;;;12.60;1.00;;;;;;5023492;28;20779;-59
2022/10/19 10:29:19;;;;;;;8.23;1.65;;;13.40;1.00;;;;;;5026224;28;20041;-59
2022/10/19 10:31:59;;;;;;;10.93;1.55;;;12.60;1.00;;;;;;5027199;28;20459;-60
2022/10/19 10:34:35;;;;;;;7.53;1.58;;;12.60;1.00;;;;;;5024948;28;20053;-59
2022/10/19 10:37:04;;;;;;;7.55;1.92;;;12.80;1.00;;;;;;5024966;28;20045;-59
2022/10/19 10:39:31;;;;;;;9.32;1.52;;;12.40;1.00;;;;;;5025730;28;20052;-59
2022/10/19 10:42:04;;;;;;;7.20;1.17;;;12.80;1.00;;;;;;5022413;28;20140;-59
2022/10/19 10:44:33;;;;;;;9.52;1.33;;;14.80;1.00;;;;;;5035780;27;20052;-59
2022/10/19 10:47:01;;;;;;;10.10;1.85;;;13.20;1.00;;;;;;5023751;28;20059;-59
2022/10/19 10:49:35;;;;;;;12.65;1.38;;;12.90;1.00;;;;;;5021128;28;20294;-59
2022/10/19 10:52:06;;;;;;;10.75;1.50;;;13.20;1.00;;;;;;5027150;28;20041;-59
2022/10/19 10:54:32;;;;;;;7.07;1.30;;;13.20;1.00;;;;;;5027454;28;20120;-58
2022/10/19 10:57:11;;;;;;;11.50;1.52;;;13.20;1.00;;;;;;5028093;28;20059;-60
2022/10/19 11:00:11;;;;;;;9.95;1.40;;;13.40;1.00;;;;;;5026519;28;20093;-59
2022/10/19 11:02:55;;;;;;;11.32;2.00;;;13.30;1.00;;;;;;5024716;28;20103;-59
2022/10/19 11:05:38;;;;;;;11.80;1.30;;;13.20;1.00;;;;;;5026538;28;20044;-59
2022/10/19 11:08:23;;;;;;;6.90;1.15;;;13.20;1.00;;;;;;5026117;28;20123;-59
2022/10/19 11:10:58;;;;;;;9.77;1.60;;;13.30;1.00;;;;;;5024366;28;20040;-58
2022/10/19 11:14:00;;;;;;;7.38;1.40;;;13.40;1.00;;;;;;5026378;28;20175;-59
2022/10/19 11:16:32;;;;;;;10.38;1.48;;;13.20;1.00;;;;;;5024316;28;20049;-58
2022/10/19 11:19:11;;;;;;;11.10;1.40;;;13.10;1.00;;;;;;5027992;28;20040;-59
2022/10/19 11:21:42;;;;;;;9.32;1.67;;;13.10;1.00;;;;;;5024852;28;20511;-59
2022/10/19 11:24:37;;;;;;;9.52;1.48;;;13.00;1.00;;;;;;5023245;28;20045;-58
2022/10/19 11:27:54;;;;;;;8.52;1.60;;;12.90;1.00;;;;;;5014984;28;20046;-58
2022/10/19 11:30:21;;;;;;;12.75;1.60;;;12.80;1.00;;;;;;5047967;28;20593;-58
2022/10/19 11:33:12;;;;;;;12.68;1.98;;;12.90;1.00;;;;;;5027904;28;20587;-58
2022/10/19 11:35:51;;;;;;;11.93;1.70;;;12.90;1.00;;;;;;5025942;28;20048;-59
2022/10/19 11:38:42;;;;;;;8.30;1.40;;;13.00;1.00;;;;;;5023159;28;20537;-58
2022/10/19 11:41:38;;;;;;;11.02;1.55;;;14.40;1.00;;;;;;5026121;28;20592;-58
2022/10/19 11:44:13;;;;;;;8.95;1.65;;;12.80;1.00;;;;;;5026693;28;20064;-59
2022/10/19 11:46:53;;;;;;;9.88;1.90;;;13.00;1.00;;;;;;5024841;28;20121;-58
2022/10/19 11:49:19;;;;;;;9.73;1.70;;;12.70;1.00;;;;;;5025366;28;20064;-58
2022/10/19 11:51:50;;;;;;;7.03;1.40;;;12.80;1.00;;;;;;5027386;28;20521;-58
2022/10/19 11:54:22;;;;;;;11.27;1.67;;;12.70;1.00;;;;;;5024713;28;20045;-58
2022/10/19 11:57:19;;;;;;;9.10;1.85;;;12.80;1.00;;;;;;5024736;28;20052;-58
2022/10/19 12:00:11;;;;;;;14.32;1.98;;;12.50;1.00;;;;;;5024556;28;20204;-58
2022/10/19 12:03:22;;;;;;;7.75;1.30;;;12.60;1.00;;;;;;5023454;28;20074;-57
2022/10/19 12:06:08;;;;;;;8.48;1.27;;;12.70;1.00;;;;;;5020689;28;20495;-58
2022/10/19 12:08:37;;;;;;;12.43;1.38;;;12.60;1.00;;;;;;5027261;28;20049;-58
2022/10/19 12:11:29;;;;;;;9.13;1.50;;;12.90;1.00;;;;;;5024447;28;20052;-58
2022/10/19 12:14:02;;;;;;;11.13;1.75;;;12.90;1.00;;;;;;5025250;28;20048;-58
2022/10/19 12:16:40;;;;;;;8.15;1.48;;;12.90;1.00;;;;;;5025763;28;20607;-58
2022/10/19 12:19:35;;;;;;;8.00;1.10;;;12.90;1.00;;;;;;5022775;28;20071;-58
2022/10/19 12:22:03;;;;;;;8.95;1.58;;;13.00;1.00;;;;;;5025691;28;20136;-58
2022/10/19 12:24:31;;;;;;;8.38;1.42;;;14.50;1.00;;;;;;5024750;28;20232;-58
2022/10/19 12:26:58;;;;;;;6.35;1.27;;;13.10;1.00;;;;;;5023144;28;20640;-59
2022/10/19 12:29:38;;;;;;;7.70;1.33;;;13.00;1.00;;;;;;5025578;28;20137;-58
2022/10/19 12:32:06;;;;;;;7.90;1.73;;;13.00;1.00;;;;;;5027689;28;20156;-58
2022/10/19 12:34:55;;;;;;;9.88;1.95;;;14.30;1.00;;;;;;5024512;28;20080;-58
2022/10/19 12:37:39;;;;;;;9.05;2.13;;;12.90;1.00;;;;;;5023822;28;20177;-58
2022/10/19 12:40:49;;;;;;;9.32;1.60;;;12.90;1.00;;;;;;5024227;28;20052;-58
2022/10/19 12:43:43;;;;;;;15.02;2.00;;;12.90;1.00;;;;;;5021294;28;20056;-58
2022/10/19 12:46:21;;;;;;;6.82;1.20;;;13.10;1.00;;;;;;5024321;28;20048;-58
2022/10/19 12:49:25;;;;;;;10.73;2.17;;;12.90;1.00;;;;;;5020127;28;22303;-57
2022/10/19 12:51:51;;;;;;;9.10;1.52;;;13.30;1.00;;;;;;5021380;28;20508;-58
2022/10/19 12:54:22;;;;;;;13.68;2.17;;;13.30;1.00;;;;;;5022011;28;20803;-59
2022/10/19 12:56:52;;;;;;;18.85;3.13;;;13.50;1.00;;;;;;5023361;28;20037;-59
2022/10/19 12:59:35;;;;;;;10.00;1.80;;;13.50;99.90;;;;;;5024967;28;20056;-58
2022/10/19 13:02:05;;;;;;;10.95;1.95;;;13.40;99.90;;;;;;5024845;28;20136;-58
2022/10/19 13:04:34;;;;;;;12.75;1.60;;;13.50;1.00;;;;;;5024478;28;20045;-57
2022/10/19 13:07:01;;;;;;;9.15;1.40;;;13.30;99.90;;;;;;5023876;28;20506;-57
2022/10/19 13:09:40;;;;;;;8.13;1.30;;;13.20;1.00;;;;;;5022290;28;20034;-59
2022/10/19 13:12:15;;;;;;;12.73;2.80;;;13.30;1.00;;;;;;5021330;28;20043;-58